sensor_id;sensor_type;location;lat;lon;timestamp;P1;durP1;ratioP1;P2;durP2;ratioP2
38785;SDS011;24535;45.508;12.252;2023-02-28T00:02:13;8.00;;;6.68;;
38785;SDS011;24535;45.508;12.252;2023-02-28T00:04:39;7.38;;;6.60;;
38785;SDS011;24535;45.508;12.252;2023-02-28T00:07:04;11.02;;;7.18;;
38785;SDS011;24535;45.508;12.252;2023-02-28T00:09:30;8.00;;;7.20;;
38785;SDS011;24535;45.508;12.252;2023-02-28T00:11:55;10.40;;;7.32;;
38785;SDS011;24535;45.508;12.252;2023-02-28T00:14:21;9.63;;;7.07;;
38785;SDS011;24535;45.508;12.252;2023-02-28T00:16:46;8.05;;;7.20;;
38785;SDS011;24535;45.508;12.252;2023-02-28T00:19:11;9.10;;;6.47;;
38785;SDS011;24535;45.508;12.252;2023-02-28T00:21:38;10.68;;;7.85;;
38785;SDS011;24535;45.508;12.252;2023-02-28T00:24:06;8.98;;;7.25;;
38785;SDS011;24535;45.508;12.252;2023-02-28T00:26:31;9.27;;;7.55;;
38785;SDS011;24535;45.508;12.252;2023-02-28T00:28:57;10.48;;;8.27;;
38785;SDS011;24535;45.508;12.252;2023-02-28T00:31:22;10.55;;;7.97;;
38785;SDS011;24535;45.508;12.252;2023-02-28T00:33:48;11.13;;;8.23;;
38785;SDS011;24535;45.508;12.252;2023-02-28T00:36:14;11.80;;;8.43;;
38785;SDS011;24535;45.508;12.252;2023-02-28T00:38:39;10.52;;;7.40;;
38785;SDS011;24535;45.508;12.252;2023-02-28T00:41:05;10.10;;;7.40;;
38785;SDS011;24535;45.508;12.252;2023-02-28T00:43:33;9.48;;;7.32;;
38785;SDS011;24535;45.508;12.252;2023-02-28T00:46:00;14.57;;;8.25;;
38785;SDS011;24535;45.508;12.252;2023-02-28T00:48:26;10.05;;;7.78;;
38785;SDS011;24535;45.508;12.252;2023-02-28T00:50:52;8.75;;;7.18;;
38785;SDS011;24535;45.508;12.252;2023-02-28T00:53:18;9.27;;;7.93;;
38785;SDS011;24535;45.508;12.252;2023-02-28T00:55:43;9.32;;;7.68;;
38785;SDS011;24535;45.508;12.252;2023-02-28T00:58:08;12.70;;;8.77;;
38785;SDS011;24535;45.508;12.252;2023-02-28T01:00:34;7.75;;;6.72;;
38785;SDS011;24535;45.508;12.252;2023-02-28T01:02:59;11.88;;;8.40;;
38785;SDS011;24535;45.508;12.252;2023-02-28T01:05:25;11.57;;;8.35;;
38785;SDS011;24535;45.508;12.252;2023-02-28T01:07:50;9.55;;;7.28;;
38785;SDS011;24535;45.508;12.252;2023-02-28T01:10:16;9.43;;;8.48;;
38785;SDS011;24535;45.508;12.252;2023-02-28T01:12:41;10.07;;;7.82;;
38785;SDS011;24535;45.508;12.252;2023-02-28T01:15:09;14.57;;;8.63;;
38785;SDS011;24535;45.508;12.252;2023-02-28T01:17:36;10.90;;;8.48;;
38785;SDS011;24535;45.508;12.252;2023-02-28T01:20:01;9.57;;;7.65;;
38785;SDS011;24535;45.508;12.252;2023-02-28T01:22:27;12.43;;;8.93;;
38785;SDS011;24535;45.508;12.252;2023-02-28T01:24:53;11.20;;;8.23;;
38785;SDS011;24535;45.508;12.252;2023-02-28T01:27:18;10.68;;;8.20;;
38785;SDS011;24535;45.508;12.252;2023-02-28T01:29:44;9.95;;;8.40;;
38785;SDS011;24535;45.508;12.252;2023-02-28T01:32:09;9.93;;;7.80;;
38785;SDS011;24535;45.508;12.252;2023-02-28T01:34:35;11.95;;;7.88;;
38785;SDS011;24535;45.508;12.252;2023-02-28T01:37:00;13.27;;;8.93;;
38785;SDS011;24535;45.508;12.252;2023-02-28T01:39:26;10.05;;;8.27;;
38785;SDS011;24535;45.508;12.252;2023-02-28T01:41:51;8.75;;;7.80;;
38785;SDS011;24535;45.508;12.252;2023-02-28T01:47:20;11.45;;;8.30;;
38785;SDS011;24535;45.508;12.252;2023-02-28T01:49:47;10.40;;;7.70;;
38785;SDS011;24535;45.508;12.252;2023-02-28T01:52:14;8.48;;;7.13;;
38785;SDS011;24535;45.508;12.252;2023-02-28T01:54:43;12.53;;;9.13;;
38785;SDS011;24535;45.508;12.252;2023-02-28T01:57:14;12.15;;;9.13;;
38785;SDS011;24535;45.508;12.252;2023-02-28T02:02:18;9.68;;;7.50;;
38785;SDS011;24535;45.508;12.252;2023-02-28T02:05:03;8.50;;;7.50;;
38785;SDS011;24535;45.508;12.252;2023-02-28T02:07:37;9.45;;;8.18;;
38785;SDS011;24535;45.508;12.252;2023-02-28T02:10:06;9.07;;;7.28;;
38785;SDS011;24535;45.508;12.252;2023-02-28T02:12:37;8.65;;;7.35;;
38785;SDS011;24535;45.508;12.252;2023-02-28T02:29:18;11.50;;;7.50;;
38785;SDS011;24535;45.508;12.252;2023-02-28T02:35:26;9.77;;;7.55;;
38785;SDS011;24535;45.508;12.252;2023-02-28T02:40:42;10.52;;;7.90;;
38785;SDS011;24535;45.508;12.252;2023-02-28T02:43:14;8.10;;;7.20;;
38785;SDS011;24535;45.508;12.252;2023-02-28T02:45:53;9.10;;;7.07;;
38785;SDS011;24535;45.508;12.252;2023-02-28T02:48:27;9.93;;;7.07;;
38785;SDS011;24535;45.508;12.252;2023-02-28T02:50:57;8.52;;;7.53;;
38785;SDS011;24535;45.508;12.252;2023-02-28T02:53:28;11.20;;;8.50;;
38785;SDS011;24535;45.508;12.252;2023-02-28T02:56:02;10.13;;;7.80;;
38785;SDS011;24535;45.508;12.252;2023-02-28T02:58:35;11.82;;;9.20;;
38785;SDS011;24535;45.508;12.252;2023-02-28T03:01:07;10.65;;;8.25;;
38785;SDS011;24535;45.508;12.252;2023-02-28T03:03:38;8.93;;;7.95;;
38785;SDS011;24535;45.508;12.252;2023-02-28T03:06:04;7.88;;;7.07;;
38785;SDS011;24535;45.508;12.252;2023-02-28T03:08:33;9.65;;;7.53;;
38785;SDS011;24535;45.508;12.252;2023-02-28T03:11:01;8.77;;;7.85;;
38785;SDS011;24535;45.508;12.252;2023-02-28T03:13:54;9.13;;;7.50;;
38785;SDS011;24535;45.508;12.252;2023-02-28T03:22:45;8.90;;;7.35;;
38785;SDS011;24535;45.508;12.252;2023-02-28T03:25:50;9.70;;;7.95;;
38785;SDS011;24535;45.508;12.252;2023-02-28T03:31:47;8.85;;;6.78;;
38785;SDS011;24535;45.508;12.252;2023-02-28T03:34:24;9.63;;;7.50;;
38785;SDS011;24535;45.508;12.252;2023-02-28T03:37:05;8.18;;;7.38;;
38785;SDS011;24535;45.508;12.252;2023-02-28T03:39:37;10.68;;;8.32;;
38785;SDS011;24535;45.508;12.252;2023-02-28T03:42:41;9.80;;;8.50;;
38785;SDS011;24535;45.508;12.252;2023-02-28T03:45:04;8.20;;;7.28;;
38785;SDS011;24535;45.508;12.252;2023-02-28T03:47:51;8.70;;;7.50;;
38785;SDS011;24535;45.508;12.252;2023-02-28T03:50:20;10.20;;;8.00;;
38785;SDS011;24535;45.508;12.252;2023-02-28T03:53:08;10.30;;;8.43;;
38785;SDS011;24535;45.508;12.252;2023-02-28T03:55:40;10.93;;;8.38;;
38785;SDS011;24535;45.508;12.252;2023-02-28T03:58:15;11.52;;;8.43;;
38785;SDS011;24535;45.508;12.252;2023-02-28T04:00:51;9.65;;;8.10;;
38785;SDS011;24535;45.508;12.252;2023-02-28T04:03:21;12.35;;;9.30;;
38785;SDS011;24535;45.508;12.252;2023-02-28T04:05:55;10.77;;;8.57;;
38785;SDS011;24535;45.508;12.252;2023-02-28T04:08:22;12.95;;;8.70;;
38785;SDS011;24535;45.508;12.252;2023-02-28T04:11:06;10.93;;;8.88;;
38785;SDS011;24535;45.508;12.252;2023-02-28T04:13:47;7.88;;;7.07;;
38785;SDS011;24535;45.508;12.252;2023-02-28T04:16:13;10.10;;;8.00;;
38785;SDS011;24535;45.508;12.252;2023-02-28T04:18:39;10.65;;;8.07;;
38785;SDS011;24535;45.508;12.252;2023-02-28T04:21:05;10.48;;;8.77;;
38785;SDS011;24535;45.508;12.252;2023-02-28T04:23:31;11.27;;;8.70;;
38785;SDS011;24535;45.508;12.252;2023-02-28T04:25:57;10.45;;;8.38;;
38785;SDS011;24535;45.508;12.252;2023-02-28T04:28:23;9.07;;;7.50;;
38785;SDS011;24535;45.508;12.252;2023-02-28T04:30:54;8.52;;;7.57;;
38785;SDS011;24535;45.508;12.252;2023-02-28T04:33:23;13.48;;;7.80;;
38785;SDS011;24535;45.508;12.252;2023-02-28T04:35:57;10.40;;;8.05;;
38785;SDS011;24535;45.508;12.252;2023-02-28T04:38:27;11.45;;;8.45;;
38785;SDS011;24535;45.508;12.252;2023-02-28T04:40:56;9.55;;;8.13;;
38785;SDS011;24535;45.508;12.252;2023-02-28T04:43:22;9.43;;;8.10;;
38785;SDS011;24535;45.508;12.252;2023-02-28T04:45:47;12.20;;;8.02;;
38785;SDS011;24535;45.508;12.252;2023-02-28T04:48:13;13.13;;;8.27;;
38785;SDS011;24535;45.508;12.252;2023-02-28T04:50:38;12.23;;;8.38;;
38785;SDS011;24535;45.508;12.252;2023-02-28T04:53:04;9.05;;;7.57;;
38785;SDS011;24535;45.508;12.252;2023-02-28T04:55:29;10.90;;;8.45;;
38785;SDS011;24535;45.508;12.252;2023-02-28T04:57:55;11.52;;;8.38;;
38785;SDS011;24535;45.508;12.252;2023-02-28T05:00:20;11.35;;;8.02;;
38785;SDS011;24535;45.508;12.252;2023-02-28T05:02:46;12.32;;;7.75;;
38785;SDS011;24535;45.508;12.252;2023-02-28T05:05:11;9.43;;;8.10;;
38785;SDS011;24535;45.508;12.252;2023-02-28T05:07:43;10.55;;;8.93;;
38785;SDS011;24535;45.508;12.252;2023-02-28T05:10:09;10.43;;;8.35;;
38785;SDS011;24535;45.508;12.252;2023-02-28T05:12:35;12.30;;;8.43;;
38785;SDS011;24535;45.508;12.252;2023-02-28T05:15:01;11.35;;;8.75;;
38785;SDS011;24535;45.508;12.252;2023-02-28T05:17:27;11.10;;;8.77;;
38785;SDS011;24535;45.508;12.252;2023-02-28T05:19:53;10.02;;;7.75;;
38785;SDS011;24535;45.508;12.252;2023-02-28T05:22:18;22.10;;;9.38;;
38785;SDS011;24535;45.508;12.252;2023-02-28T05:24:44;12.68;;;8.98;;
38785;SDS011;24535;45.508;12.252;2023-02-28T05:27:09;10.55;;;9.00;;
38785;SDS011;24535;45.508;12.252;2023-02-28T05:29:35;10.68;;;8.68;;
38785;SDS011;24535;45.508;12.252;2023-02-28T05:32:07;14.43;;;9.35;;
38785;SDS011;24535;45.508;12.252;2023-02-28T05:34:37;10.75;;;9.00;;
38785;SDS011;24535;45.508;12.252;2023-02-28T05:37:03;11.88;;;9.32;;
38785;SDS011;24535;45.508;12.252;2023-02-28T05:39:28;15.57;;;9.48;;
38785;SDS011;24535;45.508;12.252;2023-02-28T05:41:54;14.50;;;8.88;;
38785;SDS011;24535;45.508;12.252;2023-02-28T05:44:19;13.48;;;9.25;;
38785;SDS011;24535;45.508;12.252;2023-02-28T05:46:45;12.63;;;9.93;;
38785;SDS011;24535;45.508;12.252;2023-02-28T05:49:10;12.98;;;9.55;;
38785;SDS011;24535;45.508;12.252;2023-02-28T05:51:36;12.02;;;9.77;;
38785;SDS011;24535;45.508;12.252;2023-02-28T05:54:04;11.68;;;9.30;;
38785;SDS011;24535;45.508;12.252;2023-02-28T05:56:30;10.85;;;8.93;;
38785;SDS011;24535;45.508;12.252;2023-02-28T05:58:56;16.85;;;9.65;;
38785;SDS011;24535;45.508;12.252;2023-02-28T06:01:30;11.48;;;10.27;;
38785;SDS011;24535;45.508;12.252;2023-02-28T06:03:56;14.07;;;10.38;;
38785;SDS011;24535;45.508;12.252;2023-02-28T06:06:22;14.20;;;9.70;;
38785;SDS011;24535;45.508;12.252;2023-02-28T06:08:48;12.13;;;9.38;;
38785;SDS011;24535;45.508;12.252;2023-02-28T06:11:13;11.85;;;9.32;;
38785;SDS011;24535;45.508;12.252;2023-02-28T06:13:39;12.13;;;9.90;;
38785;SDS011;24535;45.508;12.252;2023-02-28T06:16:05;11.20;;;9.48;;
38785;SDS011;24535;45.508;12.252;2023-02-28T06:18:32;11.80;;;9.70;;
38785;SDS011;24535;45.508;12.252;2023-02-28T06:20:57;12.85;;;9.80;;
38785;SDS011;24535;45.508;12.252;2023-02-28T06:23:23;10.77;;;9.55;;
38785;SDS011;24535;45.508;12.252;2023-02-28T06:25:48;16.15;;;10.25;;
38785;SDS011;24535;45.508;12.252;2023-02-28T06:28:14;13.45;;;9.57;;
38785;SDS011;24535;45.508;12.252;2023-02-28T06:30:40;14.85;;;9.68;;
38785;SDS011;24535;45.508;12.252;2023-02-28T06:33:05;12.60;;;9.95;;
38785;SDS011;24535;45.508;12.252;2023-02-28T06:35:31;15.30;;;9.95;;
38785;SDS011;24535;45.508;12.252;2023-02-28T06:37:57;12.68;;;9.90;;
38785;SDS011;24535;45.508;12.252;2023-02-28T06:40:23;12.82;;;8.82;;
38785;SDS011;24535;45.508;12.252;2023-02-28T06:42:48;12.10;;;9.00;;
38785;SDS011;24535;45.508;12.252;2023-02-28T06:45:14;12.57;;;9.27;;
38785;SDS011;24535;45.508;12.252;2023-02-28T06:47:40;13.05;;;9.18;;
38785;SDS011;24535;45.508;12.252;2023-02-28T06:50:07;12.93;;;10.20;;
38785;SDS011;24535;45.508;12.252;2023-02-28T06:52:35;12.93;;;10.68;;
38785;SDS011;24535;45.508;12.252;2023-02-28T06:55:06;14.18;;;10.05;;
38785;SDS011;24535;45.508;12.252;2023-02-28T06:57:33;11.77;;;9.25;;
38785;SDS011;24535;45.508;12.252;2023-02-28T07:00:00;14.90;;;9.65;;
38785;SDS011;24535;45.508;12.252;2023-02-28T07:02:30;11.73;;;8.80;;
38785;SDS011;24535;45.508;12.252;2023-02-28T07:04:56;12.48;;;8.82;;
38785;SDS011;24535;45.508;12.252;2023-02-28T07:07:22;13.13;;;10.38;;
38785;SDS011;24535;45.508;12.252;2023-02-28T07:09:47;12.73;;;9.75;;
38785;SDS011;24535;45.508;12.252;2023-02-28T07:12:12;13.27;;;9.60;;
38785;SDS011;24535;45.508;12.252;2023-02-28T07:14:38;12.65;;;9.70;;
38785;SDS011;24535;45.508;12.252;2023-02-28T07:17:03;14.15;;;10.40;;
38785;SDS011;24535;45.508;12.252;2023-02-28T07:19:31;11.73;;;8.98;;
38785;SDS011;24535;45.508;12.252;2023-02-28T07:21:56;12.80;;;9.52;;
38785;SDS011;24535;45.508;12.252;2023-02-28T07:24:22;12.63;;;9.15;;
38785;SDS011;24535;45.508;12.252;2023-02-28T07:26:50;13.00;;;9.75;;
38785;SDS011;24535;45.508;12.252;2023-02-28T07:29:16;12.55;;;10.00;;
38785;SDS011;24535;45.508;12.252;2023-02-28T07:31:41;12.30;;;9.57;;
38785;SDS011;24535;45.508;12.252;2023-02-28T07:34:07;13.82;;;10.57;;
38785;SDS011;24535;45.508;12.252;2023-02-28T07:36:32;15.13;;;10.13;;
38785;SDS011;24535;45.508;12.252;2023-02-28T07:38:58;13.75;;;9.68;;
38785;SDS011;24535;45.508;12.252;2023-02-28T07:41:23;12.02;;;9.65;;
38785;SDS011;24535;45.508;12.252;2023-02-28T07:43:53;18.95;;;10.52;;
38785;SDS011;24535;45.508;12.252;2023-02-28T07:46:20;14.70;;;10.52;;
38785;SDS011;24535;45.508;12.252;2023-02-28T07:48:46;13.77;;;9.68;;
38785;SDS011;24535;45.508;12.252;2023-02-28T07:51:11;14.75;;;10.35;;
38785;SDS011;24535;45.508;12.252;2023-02-28T07:53:37;12.57;;;10.05;;
38785;SDS011;24535;45.508;12.252;2023-02-28T07:56:03;13.73;;;9.32;;
38785;SDS011;24535;45.508;12.252;2023-02-28T07:58:29;12.95;;;8.88;;
38785;SDS011;24535;45.508;12.252;2023-02-28T08:00:55;12.90;;;8.93;;
38785;SDS011;24535;45.508;12.252;2023-02-28T08:03:22;12.93;;;8.93;;
38785;SDS011;24535;45.508;12.252;2023-02-28T08:05:48;11.05;;;8.13;;
38785;SDS011;24535;45.508;12.252;2023-02-28T08:08:16;11.68;;;7.75;;
38785;SDS011;24535;45.508;12.252;2023-02-28T08:10:42;9.77;;;7.95;;
38785;SDS011;24535;45.508;12.252;2023-02-28T08:13:07;10.52;;;7.40;;
38785;SDS011;24535;45.508;12.252;2023-02-28T08:15:33;12.75;;;8.50;;
38785;SDS011;24535;45.508;12.252;2023-02-28T08:17:58;12.13;;;7.97;;
38785;SDS011;24535;45.508;12.252;2023-02-28T08:20:24;14.50;;;7.90;;
38785;SDS011;24535;45.508;12.252;2023-02-28T08:22:50;10.05;;;7.55;;
38785;SDS011;24535;45.508;12.252;2023-02-28T08:25:16;10.57;;;8.18;;
38785;SDS011;24535;45.508;12.252;2023-02-28T08:27:42;12.55;;;8.98;;
38785;SDS011;24535;45.508;12.252;2023-02-28T08:30:09;11.07;;;8.35;;
38785;SDS011;24535;45.508;12.252;2023-02-28T08:32:36;13.32;;;8.80;;
38785;SDS011;24535;45.508;12.252;2023-02-28T08:35:02;14.00;;;8.63;;
38785;SDS011;24535;45.508;12.252;2023-02-28T08:37:28;10.30;;;8.32;;
38785;SDS011;24535;45.508;12.252;2023-02-28T08:39:54;11.70;;;8.95;;
38785;SDS011;24535;45.508;12.252;2023-02-28T08:42:19;14.45;;;8.00;;
38785;SDS011;24535;45.508;12.252;2023-02-28T08:44:45;10.50;;;9.07;;
38785;SDS011;24535;45.508;12.252;2023-02-28T08:47:10;9.82;;;8.15;;
38785;SDS011;24535;45.508;12.252;2023-02-28T08:49:36;8.55;;;7.05;;
38785;SDS011;24535;45.508;12.252;2023-02-28T08:52:02;9.93;;;7.55;;
38785;SDS011;24535;45.508;12.252;2023-02-28T08:54:28;10.07;;;7.85;;
38785;SDS011;24535;45.508;12.252;2023-02-28T08:56:56;9.38;;;6.93;;
38785;SDS011;24535;45.508;12.252;2023-02-28T08:59:22;13.10;;;7.47;;
38785;SDS011;24535;45.508;12.252;2023-02-28T09:01:49;8.48;;;7.00;;
38785;SDS011;24535;45.508;12.252;2023-02-28T09:04:14;10.63;;;7.35;;
38785;SDS011;24535;45.508;12.252;2023-02-28T09:06:40;8.48;;;6.68;;
38785;SDS011;24535;45.508;12.252;2023-02-28T09:09:05;11.88;;;7.20;;
38785;SDS011;24535;45.508;12.252;2023-02-28T09:11:32;10.65;;;7.57;;
38785;SDS011;24535;45.508;12.252;2023-02-28T09:13:58;9.77;;;6.35;;
38785;SDS011;24535;45.508;12.252;2023-02-28T09:16:25;7.72;;;6.57;;
38785;SDS011;24535;45.508;12.252;2023-02-28T09:18:51;8.90;;;6.43;;
38785;SDS011;24535;45.508;12.252;2023-02-28T09:21:17;11.60;;;7.05;;
38785;SDS011;24535;45.508;12.252;2023-02-28T09:23:43;8.23;;;6.82;;
38785;SDS011;24535;45.508;12.252;2023-02-28T09:26:17;8.48;;;6.95;;
38785;SDS011;24535;45.508;12.252;2023-02-28T09:28:48;11.95;;;8.00;;
38785;SDS011;24535;45.508;12.252;2023-02-28T09:31:15;9.02;;;7.20;;
38785;SDS011;24535;45.508;12.252;2023-02-28T09:33:45;10.18;;;7.40;;
38785;SDS011;24535;45.508;12.252;2023-02-28T09:36:11;9.50;;;6.78;;
38785;SDS011;24535;45.508;12.252;2023-02-28T09:38:37;13.18;;;7.30;;
38785;SDS011;24535;45.508;12.252;2023-02-28T09:41:08;9.77;;;7.43;;
38785;SDS011;24535;45.508;12.252;2023-02-28T09:43:40;10.18;;;6.90;;
38785;SDS011;24535;45.508;12.252;2023-02-28T09:48:50;10.07;;;7.07;;
38785;SDS011;24535;45.508;12.252;2023-02-28T09:54:14;10.15;;;7.22;;
38785;SDS011;24535;45.508;12.252;2023-02-28T09:56:49;7.82;;;6.72;;
38785;SDS011;24535;45.508;12.252;2023-02-28T10:04:45;9.35;;;6.30;;
38785;SDS011;24535;45.508;12.252;2023-02-28T10:12:53;8.75;;;6.22;;
38785;SDS011;24535;45.508;12.252;2023-02-28T10:15:22;8.20;;;6.05;;
38785;SDS011;24535;45.508;12.252;2023-02-28T10:20:19;9.20;;;5.65;;
38785;SDS011;24535;45.508;12.252;2023-02-28T10:22:52;9.68;;;7.63;;
38785;SDS011;24535;45.508;12.252;2023-02-28T10:25:33;8.50;;;7.00;;
38785;SDS011;24535;45.508;12.252;2023-02-28T10:28:04;9.93;;;7.30;;
38785;SDS011;24535;45.508;12.252;2023-02-28T10:30:36;9.85;;;7.47;;
38785;SDS011;24535;45.508;12.252;2023-02-28T10:33:05;9.10;;;6.45;;
38785;SDS011;24535;45.508;12.252;2023-02-28T10:35:30;10.30;;;6.80;;
38785;SDS011;24535;45.508;12.252;2023-02-28T10:37:59;9.68;;;7.22;;
38785;SDS011;24535;45.508;12.252;2023-02-28T10:40:34;12.77;;;7.18;;
38785;SDS011;24535;45.508;12.252;2023-02-28T10:45:31;11.05;;;6.90;;
38785;SDS011;24535;45.508;12.252;2023-02-28T10:48:04;11.95;;;7.30;;
38785;SDS011;24535;45.508;12.252;2023-02-28T10:56:00;10.27;;;7.32;;
38785;SDS011;24535;45.508;12.252;2023-02-28T10:58:30;9.93;;;7.90;;
38785;SDS011;24535;45.508;12.252;2023-02-28T11:00:55;8.90;;;6.70;;
38785;SDS011;24535;45.508;12.252;2023-02-28T11:03:32;10.48;;;7.57;;
38785;SDS011;24535;45.508;12.252;2023-02-28T11:06:04;10.55;;;8.10;;
38785;SDS011;24535;45.508;12.252;2023-02-28T11:11:43;11.32;;;7.78;;
38785;SDS011;24535;45.508;12.252;2023-02-28T11:14:17;9.77;;;7.43;;
38785;SDS011;24535;45.508;12.252;2023-02-28T11:16:46;9.70;;;7.90;;
38785;SDS011;24535;45.508;12.252;2023-02-28T11:19:33;11.52;;;9.00;;
38785;SDS011;24535;45.508;12.252;2023-02-28T11:22:05;11.10;;;8.18;;
38785;SDS011;24535;45.508;12.252;2023-02-28T11:24:35;11.00;;;8.40;;
38785;SDS011;24535;45.508;12.252;2023-02-28T11:27:11;10.98;;;8.35;;
38785;SDS011;24535;45.508;12.252;2023-02-28T11:30:04;11.65;;;7.97;;
38785;SDS011;24535;45.508;12.252;2023-02-28T11:32:57;14.23;;;8.88;;
38785;SDS011;24535;45.508;12.252;2023-02-28T11:35:30;9.77;;;7.93;;
38785;SDS011;24535;45.508;12.252;2023-02-28T11:38:00;12.00;;;7.32;;
38785;SDS011;24535;45.508;12.252;2023-02-28T11:46:11;15.07;;;8.52;;
38785;SDS011;24535;45.508;12.252;2023-02-28T11:52:05;9.43;;;7.47;;
38785;SDS011;24535;45.508;12.252;2023-02-28T11:57:15;10.52;;;7.32;;
38785;SDS011;24535;45.508;12.252;2023-02-28T12:02:44;10.05;;;7.80;;
38785;SDS011;24535;45.508;12.252;2023-02-28T12:08:01;11.18;;;7.43;;
38785;SDS011;24535;45.508;12.252;2023-02-28T12:10:41;10.15;;;7.15;;
38785;SDS011;24535;45.508;12.252;2023-02-28T12:21:24;10.70;;;7.72;;
38785;SDS011;24535;45.508;12.252;2023-02-28T12:26:28;12.43;;;8.77;;
38785;SDS011;24535;45.508;12.252;2023-02-28T12:29:04;14.07;;;7.35;;
38785;SDS011;24535;45.508;12.252;2023-02-28T12:31:43;10.18;;;7.45;;
38785;SDS011;24535;45.508;12.252;2023-02-28T12:34:16;10.98;;;7.50;;
38785;SDS011;24535;45.508;12.252;2023-02-28T12:36:46;9.52;;;7.47;;
38785;SDS011;24535;45.508;12.252;2023-02-28T12:39:21;10.43;;;7.25;;
38785;SDS011;24535;45.508;12.252;2023-02-28T12:41:53;15.02;;;8.15;;
38785;SDS011;24535;45.508;12.252;2023-02-28T12:46:49;7.70;;;5.85;;
38785;SDS011;24535;45.508;12.252;2023-02-28T12:51:56;10.90;;;7.90;;
38785;SDS011;24535;45.508;12.252;2023-02-28T12:54:28;10.32;;;6.50;;
38785;SDS011;24535;45.508;12.252;2023-02-28T13:00:04;7.80;;;6.00;;
38785;SDS011;24535;45.508;12.252;2023-02-28T13:10:50;13.18;;;5.45;;
38785;SDS011;24535;45.508;12.252;2023-02-28T13:13:20;9.02;;;5.43;;
38785;SDS011;24535;45.508;12.252;2023-02-28T13:15:58;8.38;;;6.15;;
38785;SDS011;24535;45.508;12.252;2023-02-28T13:18:38;9.30;;;6.22;;
38785;SDS011;24535;45.508;12.252;2023-02-28T13:21:08;13.40;;;6.38;;
38785;SDS011;24535;45.508;12.252;2023-02-28T13:26:24;8.30;;;6.50;;
38785;SDS011;24535;45.508;12.252;2023-02-28T13:47:39;11.05;;;6.03;;
38785;SDS011;24535;45.508;12.252;2023-02-28T14:01:11;14.80;;;6.88;;
38785;SDS011;24535;45.508;12.252;2023-02-28T14:06:31;17.40;;;7.00;;
38785;SDS011;24535;45.508;12.252;2023-02-28T14:11:43;12.30;;;6.38;;
38785;SDS011;24535;45.508;12.252;2023-02-28T14:17:01;15.75;;;7.13;;
38785;SDS011;24535;45.508;12.252;2023-02-28T14:19:30;16.67;;;6.65;;
38785;SDS011;24535;45.508;12.252;2023-02-28T14:25:00;10.88;;;5.97;;
38785;SDS011;24535;45.508;12.252;2023-02-28T14:28:17;10.20;;;6.60;;
38785;SDS011;24535;45.508;12.252;2023-02-28T14:36:24;10.13;;;7.45;;
38785;SDS011;24535;45.508;12.252;2023-02-28T14:38:57;13.40;;;7.85;;
38785;SDS011;24535;45.508;12.252;2023-02-28T14:41:37;15.07;;;7.22;;
38785;SDS011;24535;45.508;12.252;2023-02-28T14:44:20;11.48;;;7.20;;
38785;SDS011;24535;45.508;12.252;2023-02-28T14:46:52;10.88;;;7.60;;
38785;SDS011;24535;45.508;12.252;2023-02-28T14:49:26;14.43;;;7.88;;
38785;SDS011;24535;45.508;12.252;2023-02-28T14:54:40;10.82;;;7.57;;
38785;SDS011;24535;45.508;12.252;2023-02-28T14:57:12;12.68;;;7.68;;
38785;SDS011;24535;45.508;12.252;2023-02-28T14:59:46;10.70;;;7.20;;
38785;SDS011;24535;45.508;12.252;2023-02-28T15:02:22;17.33;;;7.97;;
38785;SDS011;24535;45.508;12.252;2023-02-28T15:04:56;12.98;;;7.32;;
38785;SDS011;24535;45.508;12.252;2023-02-28T15:07:24;11.35;;;7.13;;
38785;SDS011;24535;45.508;12.252;2023-02-28T15:15:21;9.80;;;6.78;;
38785;SDS011;24535;45.508;12.252;2023-02-28T15:17:49;11.32;;;7.35;;
38785;SDS011;24535;45.508;12.252;2023-02-28T15:20:18;15.95;;;8.20;;
38785;SDS011;24535;45.508;12.252;2023-02-28T15:22:44;11.52;;;7.65;;
38785;SDS011;24535;45.508;12.252;2023-02-28T15:25:13;13.43;;;8.20;;
38785;SDS011;24535;45.508;12.252;2023-02-28T15:27:50;15.57;;;8.15;;
38785;SDS011;24535;45.508;12.252;2023-02-28T15:30:21;13.30;;;8.90;;
38785;SDS011;24535;45.508;12.252;2023-02-28T15:33:17;20.00;;;8.10;;
38785;SDS011;24535;45.508;12.252;2023-02-28T15:35:48;16.55;;;7.50;;
38785;SDS011;24535;45.508;12.252;2023-02-28T15:40:56;11.00;;;8.35;;
38785;SDS011;24535;45.508;12.252;2023-02-28T15:54:02;12.80;;;7.45;;
38785;SDS011;24535;45.508;12.252;2023-02-28T15:56:38;11.25;;;7.65;;
38785;SDS011;24535;45.508;12.252;2023-02-28T15:59:08;19.50;;;7.80;;
38785;SDS011;24535;45.508;12.252;2023-02-28T16:01:43;14.35;;;8.23;;
38785;SDS011;24535;45.508;12.252;2023-02-28T16:04:16;15.73;;;7.85;;
38785;SDS011;24535;45.508;12.252;2023-02-28T16:06:53;16.90;;;9.30;;
38785;SDS011;24535;45.508;12.252;2023-02-28T16:09:26;16.15;;;9.70;;
38785;SDS011;24535;45.508;12.252;2023-02-28T16:11:55;11.77;;;8.82;;
38785;SDS011;24535;45.508;12.252;2023-02-28T16:16:55;14.57;;;7.55;;
38785;SDS011;24535;45.508;12.252;2023-02-28T16:19:26;13.48;;;8.88;;
38785;SDS011;24535;45.508;12.252;2023-02-28T16:21:52;17.58;;;10.38;;
38785;SDS011;24535;45.508;12.252;2023-02-28T16:24:17;16.05;;;9.90;;
38785;SDS011;24535;45.508;12.252;2023-02-28T16:26:45;18.98;;;9.32;;
38785;SDS011;24535;45.508;12.252;2023-02-28T16:29:13;17.88;;;8.80;;
38785;SDS011;24535;45.508;12.252;2023-02-28T16:31:49;14.90;;;9.00;;
38785;SDS011;24535;45.508;12.252;2023-02-28T16:34:14;16.40;;;10.13;;
38785;SDS011;24535;45.508;12.252;2023-02-28T16:36:40;14.88;;;9.65;;
38785;SDS011;24535;45.508;12.252;2023-02-28T16:39:06;18.55;;;10.05;;
38785;SDS011;24535;45.508;12.252;2023-02-28T16:41:31;12.85;;;8.45;;
38785;SDS011;24535;45.508;12.252;2023-02-28T16:43:59;15.20;;;10.00;;
38785;SDS011;24535;45.508;12.252;2023-02-28T16:46:28;14.95;;;9.85;;
38785;SDS011;24535;45.508;12.252;2023-02-28T16:48:58;19.02;;;9.52;;
38785;SDS011;24535;45.508;12.252;2023-02-28T16:51:24;13.52;;;8.98;;
38785;SDS011;24535;45.508;12.252;2023-02-28T16:53:49;13.45;;;9.27;;
38785;SDS011;24535;45.508;12.252;2023-02-28T16:56:24;12.57;;;9.57;;
38785;SDS011;24535;45.508;12.252;2023-02-28T16:58:50;15.85;;;9.77;;
38785;SDS011;24535;45.508;12.252;2023-02-28T17:01:22;11.57;;;9.50;;
38785;SDS011;24535;45.508;12.252;2023-02-28T17:03:48;13.45;;;9.85;;
38785;SDS011;24535;45.508;12.252;2023-02-28T17:06:23;11.77;;;9.30;;
38785;SDS011;24535;45.508;12.252;2023-02-28T17:08:50;15.80;;;10.05;;
38785;SDS011;24535;45.508;12.252;2023-02-28T17:11:16;10.52;;;9.38;;
38785;SDS011;24535;45.508;12.252;2023-02-28T17:13:43;13.70;;;9.75;;
38785;SDS011;24535;45.508;12.252;2023-02-28T17:18:56;13.25;;;10.20;;
38785;SDS011;24535;45.508;12.252;2023-02-28T17:21:23;13.85;;;10.43;;
38785;SDS011;24535;45.508;12.252;2023-02-28T17:23:49;16.40;;;10.32;;
38785;SDS011;24535;45.508;12.252;2023-02-28T17:26:15;14.25;;;10.05;;
38785;SDS011;24535;45.508;12.252;2023-02-28T17:28:45;15.15;;;10.23;;
38785;SDS011;24535;45.508;12.252;2023-02-28T17:31:11;16.23;;;10.45;;
38785;SDS011;24535;45.508;12.252;2023-02-28T17:33:37;17.67;;;11.75;;
38785;SDS011;24535;45.508;12.252;2023-02-28T17:36:03;15.65;;;11.20;;
38785;SDS011;24535;45.508;12.252;2023-02-28T17:38:29;16.10;;;10.85;;
38785;SDS011;24535;45.508;12.252;2023-02-28T17:40:56;16.35;;;11.35;;
38785;SDS011;24535;45.508;12.252;2023-02-28T17:43:25;16.88;;;10.98;;